Time;durP1;ratioP1;P1;durP2;ratioP2;P2;SDS_P1;SDS_P2;PMS_P1;PMS_P2;Temp;Humidity;BMP_temperature;BMP_pressure;BME280_temperature;BME280_humidity;BME280_pressure;Samples;Min_cycle;Max_cycle;Signal;HPM_P1;HPM_P2
2023/12/10 00:01:46;;;;;;;27.92;5.45;;;;;;;;;;5016452;28;20632;-75
2023/12/10 00:04:12;;;;;;;29.30;4.37;;;;;;;;;;5031700;28;20201;-73
2023/12/10 00:06:38;;;;;;;29.75;4.20;;;;;;;;;;5020544;28;20276;-73
2023/12/10 00:09:03;;;;;;;30.25;4.05;;;;;;;;;;5044709;28;20192;-73
2023/12/10 00:11:29;;;;;;;31.45;4.40;;;;;;;;;;5050381;28;20641;-73
2023/12/10 00:13:54;;;;;;;37.83;4.88;;;;;;;;;;5028273;28;20209;-73
2023/12/10 00:16:20;;;;;;;37.20;4.90;;;;;;;;;;5032807;28;20225;-74
2023/12/10 00:18:45;;;;;;;36.72;5.75;;;;;;;;;;5036964;28;20209;-72
2023/12/10 00:21:14;;;;;;;34.45;4.88;;;;;;;;;;5032927;28;20298;-76
2023/12/10 00:23:40;;;;;;;25.83;4.18;;;;;;;;;;5033849;28;20674;-73
2023/12/10 00:26:05;;;;;;;38.72;4.93;;;;;;;;;;5039142;28;20182;-76
2023/12/10 00:28:30;;;;;;;33.10;6.13;;;;;;;;;;5030898;28;20548;-74
2023/12/10 00:30:56;;;;;;;29.00;4.53;;;;;;;;;;5029873;28;20613;-73
2023/12/10 00:33:21;;;;;;;32.85;4.75;;;;;;;;;;5028843;28;20554;-73
2023/12/10 00:35:47;;;;;;;33.92;5.03;;;;;;;;;;5030806;28;20189;-74
2023/12/10 00:38:12;;;;;;;39.70;5.30;;;;;;;;;;5037040;28;20214;-73
2023/12/10 00:40:38;;;;;;;39.50;6.13;;;;;;;;;;5027608;28;20597;-73
2023/12/10 00:43:04;;;;;;;43.67;5.13;;;;;;;;;;5039958;28;20185;-73
2023/12/10 00:45:29;;;;;;;36.25;4.60;;;;;;;;;;5027393;28;20186;-73
2023/12/10 00:47:55;;;;;;;30.15;4.68;;;;;;;;;;5038873;28;20272;-73
2023/12/10 00:50:20;;;;;;;39.63;6.50;;;;;;;;;;5029572;28;20265;-72
2023/12/10 00:52:46;;;;;;;29.73;4.38;;;;;;;;;;5039152;28;20275;-73
2023/12/10 00:55:12;;;;;;;32.97;4.80;;;;;;;;;;5037414;28;20212;-73
2023/12/10 00:57:37;;;;;;;32.72;4.97;;;;;;;;;;5038061;28;20186;-74
2023/12/10 01:00:04;;;;;;;35.40;5.97;;;;;;;;;;5021698;28;20258;-74
2023/12/10 01:02:30;;;;;;;29.83;4.55;;;;;;;;;;5034476;28;20666;-75
2023/12/10 01:04:55;;;;;;;33.95;4.47;;;;;;;;;;5033181;28;20183;-74
2023/12/10 01:07:21;;;;;;;26.83;4.53;;;;;;;;;;5027426;28;20189;-73
2023/12/10 01:09:46;;;;;;;20.65;3.85;;;;;;;;;;5044000;28;20186;-75
2023/12/10 01:12:12;;;;;;;24.33;4.32;;;;;;;;;;5031356;28;20432;-74
2023/12/10 01:14:38;;;;;;;33.55;4.18;;;;;;;;;;5028437;28;20258;-73
2023/12/10 01:17:04;;;;;;;32.58;4.57;;;;;;;;;;5028014;28;20202;-74
2023/12/10 01:19:29;;;;;;;28.88;5.05;;;;;;;;;;5018121;28;20205;-74
2023/12/10 01:21:55;;;;;;;29.20;4.60;;;;;;;;;;5028156;28;20186;-73
2023/12/10 01:24:20;;;;;;;36.85;4.55;;;;;;;;;;5041862;28;20280;-75
2023/12/10 01:26:46;;;;;;;23.88;4.28;;;;;;;;;;5037026;28;20583;-77
2023/12/10 01:29:11;;;;;;;32.00;4.72;;;;;;;;;;5021502;28;20201;-74
2023/12/10 01:31:37;;;;;;;34.17;4.20;;;;;;;;;;5034766;28;20663;-73
2023/12/10 01:34:03;;;;;;;39.97;5.70;;;;;;;;;;5035625;28;20288;-74
2023/12/10 01:36:29;;;;;;;25.75;4.35;;;;;;;;;;5028791;28;20293;-73
2023/12/10 01:38:55;;;;;;;38.60;5.45;;;;;;;;;;5044214;28;20194;-73
2023/12/10 01:41:21;;;;;;;29.63;4.53;;;;;;;;;;5044211;28;20313;-74
2023/12/10 01:43:46;;;;;;;37.90;5.47;;;;;;;;;;5026749;28;20615;-74
2023/12/10 01:46:12;;;;;;;34.58;4.68;;;;;;;;;;5031894;28;20190;-73
2023/12/10 01:48:41;;;;;;;31.60;4.25;;;;;;;;;;5033184;28;20378;-73
2023/12/10 01:51:08;;;;;;;22.65;4.28;;;;;;;;;;5032685;28;20198;-76
2023/12/10 01:53:34;;;;;;;26.13;4.53;;;;;;;;;;5027823;28;20218;-76
2023/12/10 01:55:59;;;;;;;35.75;4.60;;;;;;;;;;5025672;28;20187;-77
2023/12/10 01:58:26;;;;;;;30.23;4.80;;;;;;;;;;5023981;28;20205;-76
2023/12/10 02:00:51;;;;;;;28.80;4.30;;;;;;;;;;5031331;28;20260;-77
2023/12/10 02:03:18;;;;;;;24.58;4.60;;;;;;;;;;5030079;28;20563;-77
2023/12/10 02:05:43;;;;;;;24.23;4.22;;;;;;;;;;5029878;28;20231;-78
2023/12/10 02:08:09;;;;;;;30.73;4.28;;;;;;;;;;5030113;28;20209;-78
2023/12/10 02:10:34;;;;;;;27.92;4.05;;;;;;;;;;5026345;28;20225;-78
2023/12/10 02:13:02;;;;;;;35.30;4.75;;;;;;;;;;5034267;28;20228;-78
2023/12/10 02:15:28;;;;;;;37.97;5.03;;;;;;;;;;5027278;28;20241;-79
2023/12/10 02:17:54;;;;;;;29.48;4.00;;;;;;;;;;5024226;28;20260;-77
2023/12/10 02:20:19;;;;;;;34.40;4.85;;;;;;;;;;5022040;28;20190;-78
2023/12/10 02:23:17;;;;;;;25.55;4.15;;;;;;;;;;5017048;28;20194;-79
2023/12/10 02:25:42;;;;;;;27.67;4.32;;;;;;;;;;5030263;28;20213;-79
2023/12/10 02:28:09;;;;;;;32.05;4.72;;;;;;;;;;5033379;28;20194;-78
2023/12/10 02:30:35;;;;;;;26.58;4.22;;;;;;;;;;5012039;28;20237;-79
2023/12/10 02:33:03;;;;;;;30.38;4.30;;;;;;;;;;5027760;28;20194;-78
2023/12/10 02:35:29;;;;;;;29.08;4.32;;;;;;;;;;5018800;28;20186;-79
2023/12/10 02:37:55;;;;;;;27.13;3.88;;;;;;;;;;5028537;28;20688;-79
2023/12/10 02:40:21;;;;;;;24.85;4.47;;;;;;;;;;5024017;28;20661;-79
2023/12/10 02:42:48;;;;;;;27.88;3.97;;;;;;;;;;5029287;28;20236;-77
2023/12/10 02:45:14;;;;;;;38.28;5.28;;;;;;;;;;5024456;28;20197;-78
2023/12/10 02:47:40;;;;;;;35.38;5.45;;;;;;;;;;5018872;28;20194;-78
2023/12/10 02:50:08;;;;;;;33.13;4.78;;;;;;;;;;5035658;28;20239;-78
2023/12/10 02:52:37;;;;;;;30.83;4.40;;;;;;;;;;5017602;28;20197;-78
2023/12/10 02:55:06;;;;;;;34.42;4.90;;;;;;;;;;5024567;28;20222;-79
2023/12/10 02:57:32;;;;;;;29.63;4.55;;;;;;;;;;5019072;28;20205;-79
2023/12/10 02:59:58;;;;;;;29.02;4.57;;;;;;;;;;5022803;28;20198;-78
2023/12/10 03:02:23;;;;;;;30.60;5.80;;;;;;;;;;5028481;28;20505;-79
2023/12/10 03:04:49;;;;;;;26.67;4.10;;;;;;;;;;5036149;28;20206;-80
2023/12/10 03:07:14;;;;;;;29.08;4.07;;;;;;;;;;5029884;28;20198;-80
2023/12/10 03:09:40;;;;;;;24.73;4.10;;;;;;;;;;5033761;28;20613;-79
2023/12/10 03:12:06;;;;;;;34.55;4.63;;;;;;;;;;5006552;28;20193;-77
2023/12/10 03:14:31;;;;;;;29.33;5.05;;;;;;;;;;5029786;28;20225;-77
2023/12/10 03:16:57;;;;;;;28.40;4.93;;;;;;;;;;5019141;28;20277;-79
2023/12/10 03:19:22;;;;;;;31.90;5.85;;;;;;;;;;5027592;28;20202;-78
2023/12/10 03:21:48;;;;;;;20.67;3.60;;;;;;;;;;5013212;28;20182;-77
2023/12/10 03:24:13;;;;;;;31.35;3.42;;;;;;;;;;5031355;28;20189;-77
2023/12/10 03:26:39;;;;;;;21.92;3.65;;;;;;;;;;5027775;28;20664;-78
2023/12/10 03:29:04;;;;;;;19.60;3.20;;;;;;;;;;5037666;28;20235;-78
2023/12/10 03:31:30;;;;;;;26.20;4.47;;;;;;;;;;5009925;28;20191;-78
2023/12/10 03:33:56;;;;;;;22.30;4.03;;;;;;;;;;5032442;28;20241;-79
2023/12/10 03:36:22;;;;;;;29.00;4.28;;;;;;;;;;5023214;28;20739;-79
2023/12/10 03:38:48;;;;;;;23.77;3.58;;;;;;;;;;5030079;28;20182;-79
2023/12/10 03:41:13;;;;;;;23.07;4.83;;;;;;;;;;5031295;28;20679;-78
2023/12/10 03:43:39;;;;;;;20.70;3.70;;;;;;;;;;5027691;28;20175;-78
2023/12/10 03:46:04;;;;;;;22.38;3.08;;;;;;;;;;5015329;28;20194;-78
2023/12/10 03:48:30;;;;;;;25.08;3.28;;;;;;;;;;5007729;28;20267;-78
2023/12/10 03:50:55;;;;;;;26.13;4.13;;;;;;;;;;5032798;28;20214;-79
2023/12/10 03:53:21;;;;;;;25.85;4.60;;;;;;;;;;5036157;28;20213;-79
2023/12/10 03:55:47;;;;;;;27.10;3.87;;;;;;;;;;5011894;28;20182;-77
2023/12/10 03:58:13;;;;;;;24.30;4.10;;;;;;;;;;5025514;28;20198;-79
2023/12/10 04:00:40;;;;;;;26.02;3.90;;;;;;;;;;5026007;28;20682;-80
2023/12/10 04:03:05;;;;;;;28.65;3.55;;;;;;;;;;5038411;28;20251;-78
2023/12/10 04:05:31;;;;;;;23.87;3.73;;;;;;;;;;5029328;28;20194;-77
2023/12/10 04:07:56;;;;;;;23.57;3.80;;;;;;;;;;5016898;28;20256;-78
2023/12/10 04:10:21;;;;;;;33.78;4.10;;;;;;;;;;5024364;28;20193;-78
2023/12/10 04:12:47;;;;;;;23.77;3.83;;;;;;;;;;5033736;28;20280;-79
2023/12/10 04:15:13;;;;;;;34.05;5.03;;;;;;;;;;5015174;28;20824;-79
2023/12/10 04:17:38;;;;;;;27.85;4.45;;;;;;;;;;5032495;28;20244;-78
2023/12/10 04:20:05;;;;;;;26.40;3.90;;;;;;;;;;5032885;28;20547;-77
2023/12/10 04:22:31;;;;;;;29.55;5.47;;;;;;;;;;5022079;28;20193;-77
2023/12/10 04:24:56;;;;;;;28.48;4.50;;;;;;;;;;5035781;28;20607;-77
2023/12/10 04:27:23;;;;;;;29.10;4.10;;;;;;;;;;5034783;28;20198;-76
2023/12/10 04:29:49;;;;;;;27.97;4.70;;;;;;;;;;5030541;28;20194;-78
2023/12/10 04:32:14;;;;;;;30.43;4.30;;;;;;;;;;5032183;28;20602;-78
2023/12/10 04:34:40;;;;;;;30.10;4.57;;;;;;;;;;5038962;28;20197;-77
2023/12/10 04:37:05;;;;;;;28.85;4.18;;;;;;;;;;5040481;28;20185;-77
2023/12/10 04:39:31;;;;;;;30.70;4.68;;;;;;;;;;5033462;28;20675;-78
2023/12/10 04:41:56;;;;;;;30.08;4.43;;;;;;;;;;5035701;28;20190;-78
2023/12/10 04:44:21;;;;;;;30.47;4.30;;;;;;;;;;5030553;28;20197;-77
2023/12/10 04:46:47;;;;;;;31.00;4.73;;;;;;;;;;5035643;28;20188;-78
2023/12/10 04:49:12;;;;;;;32.13;4.63;;;;;;;;;;5037981;28;20194;-78
2023/12/10 04:51:38;;;;;;;26.47;4.03;;;;;;;;;;5031690;28;20202;-76
2023/12/10 04:54:04;;;;;;;27.60;5.15;;;;;;;;;;5035662;28;20581;-77
2023/12/10 04:56:29;;;;;;;32.70;3.90;;;;;;;;;;5040085;28;20201;-77
2023/12/10 04:58:55;;;;;;;31.40;3.67;;;;;;;;;;5036646;28;20544;-79
2023/12/10 05:01:20;;;;;;;33.28;4.55;;;;;;;;;;5036053;28;20415;-77
2023/12/10 05:03:45;;;;;;;32.05;4.13;;;;;;;;;;5017327;28;20529;-78
2023/12/10 05:06:11;;;;;;;28.20;3.72;;;;;;;;;;5037451;28;20240;-77
2023/12/10 05:08:37;;;;;;;26.42;4.03;;;;;;;;;;5017341;28;20190;-79
2023/12/10 05:11:03;;;;;;;28.40;3.75;;;;;;;;;;5012960;28;20187;-77
2023/12/10 05:13:29;;;;;;;25.92;3.92;;;;;;;;;;5039922;28;20225;-76
2023/12/10 05:15:57;;;;;;;34.28;5.43;;;;;;;;;;5032788;28;20230;-78
2023/12/10 05:18:23;;;;;;;28.00;4.00;;;;;;;;;;5035516;28;20252;-78
2023/12/10 05:20:48;;;;;;;31.58;4.25;;;;;;;;;;5026674;28;20191;-78
2023/12/10 05:23:14;;;;;;;36.53;3.95;;;;;;;;;;5027339;28;20185;-76
2023/12/10 05:25:40;;;;;;;25.30;3.35;;;;;;;;;;5031041;28;20193;-76
2023/12/10 05:28:05;;;;;;;22.48;3.72;;;;;;;;;;5022067;28;20555;-76
2023/12/10 05:30:31;;;;;;;21.42;3.58;;;;;;;;;;5031709;28;20687;-76
2023/12/10 05:32:56;;;;;;;26.10;3.65;;;;;;;;;;5032807;28;20258;-76
2023/12/10 05:35:22;;;;;;;31.52;3.70;;;;;;;;;;5054773;28;20331;-77
2023/12/10 05:37:47;;;;;;;29.33;4.18;;;;;;;;;;5041678;28;20243;-75
2023/12/10 05:40:13;;;;;;;25.48;3.92;;;;;;;;;;5036523;28;20633;-76
2023/12/10 05:42:39;;;;;;;31.92;4.95;;;;;;;;;;5030978;28;20221;-75
2023/12/10 05:45:05;;;;;;;23.92;3.75;;;;;;;;;;5037525;28;20195;-77
2023/12/10 05:47:31;;;;;;;30.75;4.18;;;;;;;;;;5034232;28;20198;-75
2023/12/10 05:49:56;;;;;;;34.42;4.95;;;;;;;;;;5034982;28;20277;-75
2023/12/10 05:52:21;;;;;;;35.47;4.57;;;;;;;;;;5027764;28;20331;-76
2023/12/10 05:54:47;;;;;;;38.03;4.47;;;;;;;;;;5036132;28;20705;-77
2023/12/10 05:57:12;;;;;;;29.45;4.13;;;;;;;;;;5050470;28;20203;-76
2023/12/10 05:59:38;;;;;;;32.75;4.85;;;;;;;;;;5033367;28;20178;-75
2023/12/10 06:02:03;;;;;;;27.88;3.78;;;;;;;;;;5019583;28;20199;-76
2023/12/10 06:04:29;;;;;;;38.30;5.10;;;;;;;;;;5036797;28;20196;-74
2023/12/10 06:06:54;;;;;;;33.15;5.07;;;;;;;;;;5013605;28;20674;-75
2023/12/10 06:09:20;;;;;;;34.38;4.50;;;;;;;;;;5041722;28;20186;-75
2023/12/10 06:11:45;;;;;;;27.35;3.80;;;;;;;;;;5029895;28;20509;-75
2023/12/10 06:14:11;;;;;;;30.15;4.88;;;;;;;;;;5032175;28;20202;-74
2023/12/10 06:16:36;;;;;;;35.97;3.83;;;;;;;;;;5029292;28;20295;-74
2023/12/10 06:19:02;;;;;;;33.80;6.03;;;;;;;;;;5025934;28;20218;-74
2023/12/10 06:21:28;;;;;;;34.45;4.88;;;;;;;;;;5019481;28;20206;-74
2023/12/10 06:23:53;;;;;;;34.08;4.15;;;;;;;;;;5019214;28;20206;-74
2023/12/10 06:26:20;;;;;;;25.17;4.97;;;;;;;;;;5017669;28;20240;-74
2023/12/10 06:28:46;;;;;;;38.63;5.63;;;;;;;;;;5014643;28;20183;-74
2023/12/10 06:31:11;;;;;;;30.48;5.13;;;;;;;;;;5033056;28;20289;-74
2023/12/10 06:33:43;;;;;;;23.92;4.15;;;;;;;;;;5033042;28;20430;-75
2023/12/10 06:36:09;;;;;;;36.40;5.65;;;;;;;;;;5023980;28;20474;-75
2023/12/10 06:38:35;;;;;;;28.00;4.17;;;;;;;;;;5020610;28;20213;-75
2023/12/10 06:41:01;;;;;;;30.60;4.40;;;;;;;;;;5027889;28;20207;-74
2023/12/10 06:43:28;;;;;;;37.00;4.97;;;;;;;;;;5031853;28;20224;-75
2023/12/10 06:45:56;;;;;;;31.33;4.03;;;;;;;;;;5032172;28;20276;-77
2023/12/10 06:48:21;;;;;;;23.42;3.60;;;;;;;;;;5024936;28;20268;-78
2023/12/10 06:50:47;;;;;;;30.42;3.80;;;;;;;;;;5028664;28;20273;-78
2023/12/10 06:53:13;;;;;;;32.42;5.57;;;;;;;;;;5012174;28;20183;-77
2023/12/10 06:55:38;;;;;;;35.30;4.25;;;;;;;;;;5008227;28;20182;-77
2023/12/10 06:58:04;;;;;;;36.20;4.43;;;;;;;;;;5020718;28;20190;-78
2023/12/10 07:00:30;;;;;;;31.38;4.28;;;;;;;;;;5017494;28;20229;-76
2023/12/10 07:02:56;;;;;;;38.45;4.43;;;;;;;;;;5030110;28;20194;-77
2023/12/10 07:05:22;;;;;;;36.05;4.60;;;;;;;;;;5032744;28;20552;-76
2023/12/10 07:07:47;;;;;;;25.88;4.13;;;;;;;;;;5029601;28;20205;-77
2023/12/10 07:10:13;;;;;;;26.45;4.30;;;;;;;;;;5026804;28;20632;-77
2023/12/10 07:12:39;;;;;;;31.17;4.63;;;;;;;;;;5027349;28;20264;-76
2023/12/10 07:15:05;;;;;;;29.25;3.97;;;;;;;;;;5017441;28;20223;-77
2023/12/10 07:17:30;;;;;;;32.05;5.50;;;;;;;;;;5025215;28;20225;-78
2023/12/10 07:19:56;;;;;;;43.50;5.57;;;;;;;;;;5026262;28;20477;-76
2023/12/10 07:22:22;;;;;;;38.85;5.43;;;;;;;;;;5029157;28;20627;-76
2023/12/10 07:24:47;;;;;;;31.83;4.07;;;;;;;;;;5032654;28;20190;-76
2023/12/10 07:27:12;;;;;;;33.10;5.07;;;;;;;;;;5008492;28;20737;-77
2023/12/10 07:29:38;;;;;;;28.83;3.85;;;;;;;;;;5030288;28;22006;-75
2023/12/10 07:32:04;;;;;;;29.67;4.97;;;;;;;;;;5012471;28;20629;-76
2023/12/10 07:34:29;;;;;;;35.53;5.07;;;;;;;;;;5017828;28;20904;-75
2023/12/10 07:36:55;;;;;;;44.67;4.75;;;;;;;;;;5016060;28;22152;-75
2023/12/10 07:39:20;;;;;;;38.33;4.50;;;;;;;;;;5017848;28;20233;-78
2023/12/10 07:41:46;;;;;;;40.97;5.88;;;;;;;;;;5000436;28;20212;-76
2023/12/10 07:44:11;;;;;;;33.17;4.97;;;;;;;;;;5002551;28;20671;-77
2023/12/10 07:46:37;;;;;;;32.38;4.43;;;;;;;;;;5017989;28;20219;-77
2023/12/10 07:49:02;;;;;;;36.95;5.22;;;;;;;;;;5021831;28;20181;-76
2023/12/10 07:51:28;;;;;;;30.75;4.63;;;;;;;;;;5022571;28;20186;-76
2023/12/10 07:53:53;;;;;;;36.83;5.07;;;;;;;;;;5007787;28;20272;-75
2023/12/10 07:56:19;;;;;;;33.42;5.22;;;;;;;;;;5023107;28;20210;-75
2023/12/10 07:58:44;;;;;;;28.73;4.18;;;;;;;;;;5007288;28;20189;-74
2023/12/10 08:01:09;;;;;;;30.60;5.55;;;;;;;;;;5021412;28;20783;-75
2023/12/10 08:03:36;;;;;;;38.58;5.28;;;;;;;;;;5040055;28;20677;-75
2023/12/10 08:06:02;;;;;;;33.78;4.43;;;;;;;;;;5024343;28;20511;-77
2023/12/10 08:08:27;;;;;;;32.55;4.32;;;;;;;;;;5006514;28;20189;-75
2023/12/10 08:10:53;;;;;;;48.10;5.15;;;;;;;;;;5004059;28;20807;-75
2023/12/10 08:13:18;;;;;;;32.95;5.43;;;;;;;;;;5020983;28;20281;-77
2023/12/10 08:15:44;;;;;;;32.03;4.15;;;;;;;;;;5024457;28;20937;-75
2023/12/10 08:18:09;;;;;;;32.60;4.97;;;;;;;;;;5020120;28;20221;-74
2023/12/10 08:20:35;;;;;;;36.03;5.35;;;;;;;;;;5001613;28;21689;-76
2023/12/10 08:23:01;;;;;;;34.45;4.80;;;;;;;;;;5022092;28;20239;-75
2023/12/10 08:25:26;;;;;;;33.30;4.72;;;;;;;;;;5022520;28;20206;-75
2023/12/10 08:27:52;;;;;;;33.97;4.78;;;;;;;;;;5004766;28;20294;-75
2023/12/10 08:30:17;;;;;;;38.78;5.55;;;;;;;;;;5007011;28;21394;-78
2023/12/10 08:32:43;;;;;;;39.08;4.57;;;;;;;;;;5023505;28;20260;-75
2023/12/10 08:35:08;;;;;;;31.00;4.32;;;;;;;;;;5009544;28;21004;-75
2023/12/10 08:37:34;;;;;;;40.95;6.10;;;;;;;;;;5018655;28;20190;-76
2023/12/10 08:40:01;;;;;;;31.95;5.18;;;;;;;;;;5014880;28;20194;-74
2023/12/10 08:42:27;;;;;;;27.33;4.57;;;;;;;;;;5020512;28;20193;-74
2023/12/10 08:44:53;;;;;;;25.27;4.93;;;;;;;;;;5020985;28;20190;-75
2023/12/10 08:47:18;;;;;;;32.28;4.32;;;;;;;;;;5003363;28;20194;-76
2023/12/10 08:49:44;;;;;;;28.05;5.93;;;;;;;;;;5023588;28;20197;-77
2023/12/10 08:52:09;;;;;;;34.15;5.03;;;;;;;;;;5016709;28;20554;-74
2023/12/10 08:54:35;;;;;;;36.22;4.60;;;;;;;;;;5023429;28;20773;-75
2023/12/10 08:57:01;;;;;;;32.42;4.65;;;;;;;;;;5033743;28;20220;-74
2023/12/10 08:59:26;;;;;;;31.40;4.40;;;;;;;;;;5039211;28;20577;-75
2023/12/10 09:01:52;;;;;;;32.30;4.32;;;;;;;;;;5027559;28;20199;-76
2023/12/10 09:04:18;;;;;;;35.97;4.38;;;;;;;;;;5029928;28;20205;-75
2023/12/10 09:06:43;;;;;;;31.17;5.70;;;;;;;;;;5029903;28;20709;-75
2023/12/10 09:09:08;;;;;;;33.03;4.13;;;;;;;;;;5029729;28;20190;-74
2023/12/10 09:11:34;;;;;;;31.27;6.17;;;;;;;;;;5029730;28;20197;-74
2023/12/10 09:13:59;;;;;;;28.63;4.85;;;;;;;;;;5010747;28;20370;-74
2023/12/10 09:16:26;;;;;;;32.15;4.75;;;;;;;;;;5034713;28;20241;-74
2023/12/10 09:18:51;;;;;;;28.90;4.13;;;;;;;;;;5025865;28;20213;-74
2023/12/10 09:21:18;;;;;;;36.08;5.75;;;;;;;;;;5019726;28;20218;-74
2023/12/10 09:23:44;;;;;;;35.17;4.93;;;;;;;;;;5028402;28;20552;-74
2023/12/10 09:26:10;;;;;;;34.97;5.32;;;;;;;;;;5023651;28;20622;-75
2023/12/10 09:28:36;;;;;;;32.20;5.88;;;;;;;;;;5027199;28;20850;-75
2023/12/10 09:31:01;;;;;;;34.72;4.22;;;;;;;;;;5019329;28;20182;-75
2023/12/10 09:33:27;;;;;;;24.73;5.53;;;;;;;;;;5024868;28;20197;-74
2023/12/10 09:35:52;;;;;;;34.97;4.45;;;;;;;;;;4998901;28;20215;-74
2023/12/10 09:38:18;;;;;;;31.23;5.15;;;;;;;;;;5017501;28;20218;-75
2023/12/10 09:40:44;;;;;;;29.90;4.47;;;;;;;;;;5015688;28;20255;-74
2023/12/10 09:43:09;;;;;;;26.65;6.18;;;;;;;;;;5018913;28;20200;-74
2023/12/10 09:45:35;;;;;;;42.17;4.95;;;;;;;;;;5017649;28;20188;-74
2023/12/10 09:48:01;;;;;;;28.58;4.68;;;;;;;;;;5025565;28;20197;-74
2023/12/10 09:50:27;;;;;;;34.53;4.97;;;;;;;;;;5028119;28;20221;-74
2023/12/10 09:52:54;;;;;;;32.53;4.10;;;;;;;;;;5031480;28;20186;-74
2023/12/10 09:55:20;;;;;;;38.90;4.78;;;;;;;;;;5015543;28;20233;-75
2023/12/10 09:57:45;;;;;;;34.58;4.68;;;;;;;;;;5017015;28;20222;-74
2023/12/10 10:00:11;;;;;;;29.00;4.10;;;;;;;;;;5020633;28;20633;-75
2023/12/10 10:02:37;;;;;;;32.10;5.13;;;;;;;;;;5012813;28;20190;-75
2023/12/10 10:05:05;;;;;;;36.17;4.80;;;;;;;;;;5019876;28;20178;-76
2023/12/10 10:07:31;;;;;;;27.92;3.67;;;;;;;;;;5019941;28;20663;-75
2023/12/10 10:09:56;;;;;;;35.40;4.32;;;;;;;;;;5036682;28;20273;-75
2023/12/10 10:12:28;;;;;;;26.15;3.92;;;;;;;;;;5021699;28;20203;-75
2023/12/10 10:14:55;;;;;;;23.85;4.03;;;;;;;;;;5018369;28;20618;-74
2023/12/10 10:17:28;;;;;;;33.38;4.22;;;;;;;;;;5021224;28;20276;-75
2023/12/10 10:19:54;;;;;;;31.17;4.07;;;;;;;;;;5005702;28;20677;-74
2023/12/10 10:22:22;;;;;;;22.92;3.30;;;;;;;;;;5019924;28;20198;-75
2023/12/10 10:24:47;;;;;;;29.48;4.13;;;;;;;;;;5018635;28;20186;-74
2023/12/10 10:27:13;;;;;;;25.10;4.18;;;;;;;;;;5028682;28;20194;-74
2023/12/10 10:29:39;;;;;;;24.98;3.97;;;;;;;;;;5009678;28;20194;-74
2023/12/10 10:32:05;;;;;;;25.88;4.03;;;;;;;;;;5017737;28;20257;-74
2023/12/10 10:34:31;;;;;;;22.70;4.03;;;;;;;;;;5007088;28;20217;-74
2023/12/10 10:36:57;;;;;;;23.55;4.18;;;;;;;;;;5019511;28;20189;-74
2023/12/10 10:39:22;;;;;;;26.42;3.83;;;;;;;;;;5009840;28;20190;-74
2023/12/10 10:41:49;;;;;;;24.73;4.45;;;;;;;;;;5024436;28;20293;-73
2023/12/10 10:44:14;;;;;;;20.58;3.67;;;;;;;;;;4997447;28;20310;-74
2023/12/10 10:46:40;;;;;;;19.50;3.15;;;;;;;;;;5021875;28;20238;-73
2023/12/10 10:49:05;;;;;;;18.42;3.55;;;;;;;;;;5033623;28;20178;-73
2023/12/10 10:51:32;;;;;;;24.08;3.30;;;;;;;;;;5024598;28;20185;-74
2023/12/10 10:54:01;;;;;;;28.02;4.28;;;;;;;;;;5000813;28;20266;-75
2023/12/10 10:56:27;;;;;;;22.50;3.55;;;;;;;;;;5021685;28;20562;-73
2023/12/10 10:58:52;;;;;;;18.48;4.20;;;;;;;;;;5035415;28;20182;-75
2023/12/10 11:01:41;;;;;;;23.00;3.20;;;;;;;;;;5023277;28;20189;-74
2023/12/10 11:04:11;;;;;;;20.77;4.03;;;;;;;;;;5026229;28;20183;-74
2023/12/10 11:06:38;;;;;;;20.58;3.60;;;;;;;;;;5027273;28;20299;-74
2023/12/10 11:09:03;;;;;;;27.88;4.22;;;;;;;;;;5036020;28;20233;-74
2023/12/10 11:11:28;;;;;;;25.60;3.40;;;;;;;;;;5028428;28;20216;-74
2023/12/10 11:13:54;;;;;;;27.88;4.30;;;;;;;;;;5008837;28;20210;-73
2023/12/10 11:16:23;;;;;;;25.88;3.92;;;;;;;;;;5020314;28;20226;-74
2023/12/10 11:18:58;;;;;;;27.08;4.45;;;;;;;;;;5025348;28;20296;-74
2023/12/10 11:21:24;;;;;;;28.88;4.35;;;;;;;;;;5029968;28;20215;-74
2023/12/10 11:23:49;;;;;;;24.63;3.38;;;;;;;;;;5018078;28;20654;-75
2023/12/10 11:26:15;;;;;;;26.50;3.00;;;;;;;;;;5018258;28;20188;-76
2023/12/10 11:28:44;;;;;;;22.77;3.00;;;;;;;;;;5026536;28;20193;-72
2023/12/10 11:31:10;;;;;;;24.27;2.90;;;;;;;;;;5021741;28;20265;-73
2023/12/10 11:33:40;;;;;;;19.90;2.63;;;;;;;;;;5030532;28;20256;-73
2023/12/10 11:36:07;;;;;;;17.48;2.58;;;;;;;;;;5025172;28;20190;-73
2023/12/10 11:38:32;;;;;;;20.92;3.50;;;;;;;;;;5021010;28;20260;-74
2023/12/10 11:40:58;;;;;;;16.67;3.40;;;;;;;;;;5018310;28;20232;-75
2023/12/10 11:43:25;;;;;;;19.65;3.00;;;;;;;;;;5018582;28;20246;-73
2023/12/10 11:45:52;;;;;;;16.52;3.15;;;;;;;;;;5019397;28;20585;-74
2023/12/10 11:48:19;;;;;;;25.80;4.50;;;;;;;;;;5016229;28;20236;-73
2023/12/10 11:50:46;;;;;;;18.10;2.95;;;;;;;;;;5014998;28;20185;-74
2023/12/10 11:53:14;;;;;;;23.70;3.53;;;;;;;;;;5018129;28;20397;-74
2023/12/10 11:55:41;;;;;;;19.58;3.70;;;;;;;;;;5019896;28;20209;-74
2023/12/10 11:58:07;;;;;;;20.13;3.42;;;;;;;;;;5015841;28;20205;-74
2023/12/10 12:00:33;;;;;;;20.73;2.95;;;;;;;;;;4994831;28;20193;-74
2023/12/10 12:02:58;;;;;;;17.98;3.97;;;;;;;;;;5013046;28;20186;-76
2023/12/10 12:05:24;;;;;;;19.88;2.83;;;;;;;;;;5016160;28;20196;-74
2023/12/10 12:07:50;;;;;;;20.48;3.83;;;;;;;;;;5014095;28;20245;-75
2023/12/10 12:10:17;;;;;;;18.90;3.47;;;;;;;;;;5029004;28;20959;-74
2023/12/10 12:12:44;;;;;;;19.23;3.30;;;;;;;;;;5015326;28;20217;-74
2023/12/10 12:15:11;;;;;;;21.70;3.67;;;;;;;;;;4999015;28;20288;-74
2023/12/10 12:17:37;;;;;;;21.52;3.38;;;;;;;;;;5011473;28;20625;-74
2023/12/10 12:20:22;;;;;;;19.42;2.70;;;;;;;;;;5018637;28;20251;-73
2023/12/10 12:22:49;;;;;;;17.52;3.53;;;;;;;;;;5020753;28;20344;-73
2023/12/10 12:25:15;;;;;;;20.95;3.35;;;;;;;;;;5015244;28;20193;-76
2023/12/10 12:27:41;;;;;;;18.75;3.00;;;;;;;;;;5017772;28;20221;-74
2023/12/10 12:30:07;;;;;;;22.00;2.92;;;;;;;;;;5017739;28;20217;-74
2023/12/10 12:32:33;;;;;;;19.77;3.00;;;;;;;;;;5028521;28;20185;-73
2023/12/10 12:34:59;;;;;;;18.98;3.53;;;;;;;;;;5024198;28;20211;-74
2023/12/10 12:37:24;;;;;;;21.85;3.70;;;;;;;;;;5023661;28;20662;-73
2023/12/10 12:39:52;;;;;;;22.20;3.20;;;;;;;;;;5023202;28;20240;-74
2023/12/10 12:42:17;;;;;;;21.45;3.67;;;;;;;;;;5029099;28;20723;-74
2023/12/10 12:44:43;;;;;;;23.98;3.70;;;;;;;;;;5020021;28;20277;-73
2023/12/10 12:47:08;;;;;;;24.25;3.80;;;;;;;;;;5018579;28;20630;-73
2023/12/10 12:49:35;;;;;;;18.98;2.85;;;;;;;;;;5022916;28;20214;-73
2023/12/10 12:52:02;;;;;;;23.67;3.15;;;;;;;;;;5024449;28;20187;-75
2023/12/10 12:54:27;;;;;;;21.55;3.63;;;;;;;;;;5024904;28;20204;-73
2023/12/10 12:56:53;;;;;;;23.00;3.17;;;;;;;;;;5022883;28;20413;-73
2023/12/10 12:59:19;;;;;;;16.35;3.35;;;;;;;;;;5025618;28;20683;-73
2023/12/10 13:01:44;;;;;;;23.23;3.35;;;;;;;;;;5026453;28;20490;-73
2023/12/10 13:04:10;;;;;;;21.42;2.85;;;;;;;;;;5026602;28;20285;-73
2023/12/10 13:06:35;;;;;;;18.75;5.00;;;;;;;;;;5018453;28;20194;-73
2023/12/10 13:09:01;;;;;;;20.58;3.70;;;;;;;;;;5023778;28;20190;-73
2023/12/10 13:11:26;;;;;;;12.98;3.60;;;;;;;;;;5025143;28;20306;-73
2023/12/10 13:13:51;;;;;;;18.23;3.70;;;;;;;;;;5026991;28;20209;-73
2023/12/10 13:16:17;;;;;;;25.13;3.33;;;;;;;;;;5032568;28;20308;-73
2023/12/10 13:18:42;;;;;;;24.17;3.20;;;;;;;;;;5028603;28;20210;-74
2023/12/10 13:21:09;;;;;;;24.50;3.40;;;;;;;;;;5026274;28;20212;-73
2023/12/10 13:23:35;;;;;;;18.13;2.65;;;;;;;;;;5021261;28;20256;-74
2023/12/10 13:26:00;;;;;;;22.38;3.17;;;;;;;;;;5029436;28;20550;-72
2023/12/10 13:28:27;;;;;;;19.80;3.20;;;;;;;;;;5041046;28;20194;-73
2023/12/10 13:30:53;;;;;;;17.10;3.00;;;;;;;;;;5006628;28;20248;-73
2023/12/10 13:33:19;;;;;;;18.42;3.40;;;;;;;;;;5041018;28;20186;-73
2023/12/10 13:35:44;;;;;;;18.35;3.00;;;;;;;;;;5022294;28;20248;-73
2023/12/10 13:38:09;;;;;;;22.05;3.25;;;;;;;;;;5026135;28;20206;-73
2023/12/10 13:40:35;;;;;;;23.00;2.75;;;;;;;;;;5020237;28;20229;-73
2023/12/10 13:43:00;;;;;;;22.17;3.20;;;;;;;;;;5017064;28;20576;-73
2023/12/10 13:45:26;;;;;;;16.15;2.78;;;;;;;;;;5015777;28;20193;-74
2023/12/10 13:47:51;;;;;;;20.40;3.33;;;;;;;;;;5017525;28;20226;-73
2023/12/10 13:50:17;;;;;;;19.35;3.85;;;;;;;;;;5018892;28;20217;-73
2023/12/10 13:52:42;;;;;;;23.80;3.13;;;;;;;;;;5022474;28;20182;-72
2023/12/10 13:55:08;;;;;;;19.73;3.22;;;;;;;;;;5025390;28;20221;-72
2023/12/10 13:57:33;;;;;;;24.73;3.60;;;;;;;;;;5053644;28;20509;-74
2023/12/10 13:59:59;;;;;;;20.25;3.67;;;;;;;;;;5027569;28;20645;-73
2023/12/10 14:02:29;;;;;;;22.98;3.63;;;;;;;;;;5026331;28;20556;-72
2023/12/10 14:04:56;;;;;;;18.02;3.63;;;;;;;;;;5032701;28;20190;-73
2023/12/10 14:07:21;;;;;;;25.73;3.88;;;;;;;;;;5017648;28;20195;-72
2023/12/10 14:09:47;;;;;;;20.30;3.20;;;;;;;;;;5022896;28;20198;-72
2023/12/10 14:12:12;;;;;;;15.65;3.00;;;;;;;;;;5011174;28;20343;-75
2023/12/10 14:14:39;;;;;;;22.67;3.63;;;;;;;;;;5022143;28;20800;-73
2023/12/10 14:17:04;;;;;;;15.02;3.38;;;;;;;;;;5021986;28;20206;-72
2023/12/10 14:19:30;;;;;;;20.33;3.50;;;;;;;;;;5030231;28;20202;-73
2023/12/10 14:21:55;;;;;;;18.33;3.50;;;;;;;;;;5028867;28;20556;-73
2023/12/10 14:24:21;;;;;;;29.23;7.97;;;;;;;;;;5045871;28;20182;-73